Terminal Aerodrome Forecast
Issued by NWS Duluth, MN

Home | Current Version | Previous Version | Text Only | Print | Product List | Glossary On
Versions: 1 2 3 4 5 6 7 8 9 10 11 12 13 14 15 16
000
FTUS43 KDLH 212350
TAFINL
TAF
KINL 212350Z 2200/2224 28004KT P6SM SKC
     FM220700 15003KT P6SM VCSH OVC100 WS015/23035KT
     FM221300 18007KT P6SM SCT100 WS015/23035KT
     FM221600 19008G14KT P6SM SCT150=

USA.gov is the U.S. government's official web portal to all federal, state and local government web resources and services.